Time;durP1;ratioP1;P1;durP2;ratioP2;P2;SDS_P1;SDS_P2;PMS_P1;PMS_P2;Temp;Humidity;BMP_temperature;BMP_pressure;BME280_temperature;BME280_humidity;BME280_pressure;Samples;Min_cycle;Max_cycle;Signal;HPM_P1;HPM_P2
2024/02/06 00:00:54;;;;;;;;;;;;;;;8.84;78.72;99539.19;137106;1276;22513;-76
2024/02/06 00:03:55;;;;;;;;;;;;;;;8.85;78.78;99539.48;137100;1274;22388;-75
2024/02/06 00:06:55;;;;;;;;;;;;;;;8.86;78.76;99537.42;137064;1276;23134;-76
2024/02/06 00:09:56;;;;;;;;;;;;;;;8.85;78.75;99534.72;137109;1276;23272;-76
2024/02/06 00:12:57;;;;;;;;;;;;;;;8.85;78.58;99534.52;137101;1276;22349;-76
2024/02/06 00:15:59;;;;;;;;;;;;;;;8.85;78.44;99530.85;137113;1276;22396;-77
2024/02/06 00:19:01;;;;;;;;;;;;;;;8.83;78.65;99529.42;137055;1276;22385;-74
2024/02/06 00:22:03;;;;;;;;;;;;;;;8.82;78.45;99525.83;137127;1276;23269;-76
2024/02/06 00:25:04;;;;;;;;;;;;;;;8.83;78.34;99523.31;137083;1276;22377;-76
2024/02/06 00:28:05;;;;;;;;;;;;;;;8.82;78.19;99527.98;137082;1276;22372;-75
2024/02/06 00:31:05;;;;;;;;;;;;;;;8.83;78.33;99523.96;137125;1276;22355;-76
2024/02/06 00:34:06;;;;;;;;;;;;;;;8.83;78.15;99521.16;137102;1276;22420;-76
2024/02/06 00:37:07;;;;;;;;;;;;;;;8.81;78.10;99520.46;137131;1276;22379;-76
2024/02/06 00:40:08;;;;;;;;;;;;;;;8.79;78.23;99518.83;137157;1276;22479;-75
2024/02/06 00:43:09;;;;;;;;;;;;;;;8.76;78.02;99515.73;136991;1276;22372;-75
2024/02/06 00:46:09;;;;;;;;;;;;;;;8.76;77.84;99515.72;137121;1276;22366;-75
2024/02/06 00:49:10;;;;;;;;;;;;;;;8.76;77.87;99512.95;137111;1276;22452;-75
2024/02/06 00:52:11;;;;;;;;;;;;;;;8.74;77.86;99510.43;137107;1276;22493;-75
2024/02/06 00:55:17;;;;;;;;;;;;;;;8.75;77.99;99512.18;137110;1275;22370;-75
2024/02/06 00:58:18;;;;;;;;;;;;;;;8.74;77.89;99509.28;137101;1276;22391;-78
2024/02/06 01:01:18;;;;;;;;;;;;;;;8.72;77.98;99516.33;137130;1276;22383;-76
2024/02/06 01:04:19;;;;;;;;;;;;;;;8.71;78.02;99513.52;137117;1275;22348;-76
2024/02/06 01:07:20;;;;;;;;;;;;;;;8.69;77.96;99513.23;137125;1276;23167;-75
2024/02/06 01:10:21;;;;;;;;;;;;;;;8.68;77.85;99507.65;137082;1276;22421;-76
2024/02/06 01:13:21;;;;;;;;;;;;;;;8.66;77.96;99513.49;137142;1276;22437;-75
2024/02/06 01:16:22;;;;;;;;;;;;;;;8.64;78.02;99509.70;137077;1275;22397;-75
2024/02/06 01:19:23;;;;;;;;;;;;;;;8.63;78.07;99511.39;137125;1276;22403;-75
2024/02/06 01:22:23;;;;;;;;;;;;;;;8.63;78.13;99507.82;137135;1276;22367;-76
2024/02/06 01:25:23;;;;;;;;;;;;;;;8.63;78.19;99508.38;137090;1272;23125;-75
2024/02/06 01:28:24;;;;;;;;;;;;;;;8.62;77.96;99509.42;137148;1276;22396;-76
2024/02/06 01:31:25;;;;;;;;;;;;;;;8.60;77.99;99510.30;137128;1276;22625;-75
2024/02/06 01:34:26;;;;;;;;;;;;;;;8.59;77.87;99510.77;137159;1276;22436;-75
2024/02/06 01:37:26;;;;;;;;;;;;;;;8.58;77.93;99507.16;137109;1276;22361;-76
2024/02/06 01:40:27;;;;;;;;;;;;;;;8.59;77.93;99504.09;137118;1276;22358;-74
2024/02/06 01:43:30;;;;;;;;;;;;;;;8.60;77.62;99499.52;137116;1276;23060;-77
2024/02/06 01:46:30;;;;;;;;;;;;;;;8.62;77.48;99500.56;137122;1276;23131;-75
2024/02/06 01:49:31;;;;;;;;;;;;;;;8.61;77.83;99497.62;137146;1274;22415;-75
2024/02/06 01:52:31;;;;;;;;;;;;;;;8.60;77.69;99498.55;137109;1276;22379;-74
2024/02/06 01:55:32;;;;;;;;;;;;;;;8.59;77.76;99495.46;137110;1273;22372;-75
2024/02/06 01:58:33;;;;;;;;;;;;;;;8.57;77.62;99495.17;137110;1276;22373;-76
2024/02/06 02:01:34;;;;;;;;;;;;;;;8.54;77.79;99491.05;136945;1276;23109;-76
2024/02/06 02:04:34;;;;;;;;;;;;;;;8.52;78.00;99489.30;137091;1276;22378;-76
2024/02/06 02:07:35;;;;;;;;;;;;;;;8.50;77.74;99481.91;137165;1276;22369;-76
2024/02/06 02:10:36;;;;;;;;;;;;;;;8.51;77.72;99474.48;137173;1276;22400;-76
2024/02/06 02:13:38;;;;;;;;;;;;;;;8.50;77.72;99479.98;137159;1276;22409;-76
2024/02/06 02:16:38;;;;;;;;;;;;;;;8.50;77.73;99480.13;137132;1276;22373;-79
2024/02/06 02:19:39;;;;;;;;;;;;;;;8.50;77.48;99487.09;137186;1276;22392;-75
2024/02/06 02:22:40;;;;;;;;;;;;;;;8.49;77.65;99487.73;137179;1273;22375;-75
2024/02/06 02:25:41;;;;;;;;;;;;;;;8.47;77.73;99491.55;137132;1270;22368;-76
2024/02/06 02:28:42;;;;;;;;;;;;;;;8.47;77.76;99486.37;137157;1276;22439;-77
2024/02/06 02:31:46;;;;;;;;;;;;;;;8.47;77.80;99485.58;137084;1276;22376;-77
2024/02/06 02:34:47;;;;;;;;;;;;;;;8.46;77.77;99489.90;137157;1276;22385;-76
2024/02/06 02:37:48;;;;;;;;;;;;;;;8.43;78.04;99496.39;137119;1276;22411;-77
2024/02/06 02:40:48;;;;;;;;;;;;;;;8.39;77.94;99498.29;137196;1276;23141;-76
2024/02/06 02:43:49;;;;;;;;;;;;;;;8.39;78.10;99501.67;137177;1276;22415;-76
2024/02/06 02:46:52;;;;;;;;;;;;;;;8.38;78.24;99499.98;137110;1276;22378;-76
2024/02/06 02:49:52;;;;;;;;;;;;;;;8.37;78.03;99497.49;137118;1276;22484;-76
2024/02/06 02:52:53;;;;;;;;;;;;;;;8.37;78.19;99499.77;137163;1276;22436;-78
2024/02/06 02:55:54;;;;;;;;;;;;;;;8.37;78.19;99497.30;137139;1276;22484;-75
2024/02/06 02:58:54;;;;;;;;;;;;;;;8.35;78.08;99498.71;137147;1276;22404;-77
2024/02/06 03:01:58;;;;;;;;;;;;;;;8.33;78.12;99498.02;137130;1271;22402;-76
2024/02/06 03:04:58;;;;;;;;;;;;;;;8.31;78.05;99498.98;137137;1276;22375;-76
2024/02/06 03:07:59;;;;;;;;;;;;;;;8.30;78.07;99496.96;137117;1270;22387;-76
2024/02/06 03:10:59;;;;;;;;;;;;;;;8.29;77.91;99497.16;137149;1276;22404;-76
2024/02/06 03:14:00;;;;;;;;;;;;;;;8.29;78.10;99500.58;137120;1276;22381;-76
2024/02/06 03:17:03;;;;;;;;;;;;;;;8.28;77.87;99495.42;137129;1276;22441;-76
2024/02/06 03:20:06;;;;;;;;;;;;;;;8.29;77.74;99500.29;137132;1276;22416;-76
2024/02/06 03:23:07;;;;;;;;;;;;;;;8.29;77.76;99505.05;136966;1276;22570;-77
2024/02/06 03:26:08;;;;;;;;;;;;;;;8.28;77.67;99502.67;137112;1276;22418;-76
2024/02/06 03:29:10;;;;;;;;;;;;;;;8.26;77.38;99497.73;137081;1276;22392;-81
2024/02/06 03:32:10;;;;;;;;;;;;;;;8.25;77.32;99500.51;137144;1273;22385;-77
2024/02/06 03:35:11;;;;;;;;;;;;;;;8.25;77.01;99499.98;137149;1276;22388;-76
2024/02/06 03:38:11;;;;;;;;;;;;;;;8.24;77.17;99501.27;137147;1277;22383;-76
2024/02/06 03:41:15;;;;;;;;;;;;;;;8.23;77.22;99502.47;137167;1276;23297;-77
2024/02/06 03:44:16;;;;;;;;;;;;;;;8.20;77.32;99500.48;137162;1276;22412;-76
2024/02/06 03:47:16;;;;;;;;;;;;;;;8.17;76.97;99497.36;137130;1276;22393;-76
2024/02/06 03:50:17;;;;;;;;;;;;;;;8.15;76.84;99491.73;136977;1276;22367;-78
2024/02/06 03:53:18;;;;;;;;;;;;;;;8.14;77.08;99494.88;137138;1276;22396;-75
2024/02/06 03:56:18;;;;;;;;;;;;;;;8.11;77.10;99491.45;137177;1276;22394;-76
2024/02/06 03:59:19;;;;;;;;;;;;;;;8.11;77.21;99493.45;137136;1275;22457;-76
2024/02/06 04:02:21;;;;;;;;;;;;;;;8.08;77.13;99496.50;137104;1276;22390;-76
2024/02/06 04:05:25;;;;;;;;;;;;;;;8.07;76.96;99496.42;137158;1277;22394;-76
2024/02/06 04:08:25;;;;;;;;;;;;;;;8.04;77.10;99498.35;137113;1277;23531;-76
2024/02/06 04:11:26;;;;;;;;;;;;;;;8.01;77.22;99502.90;137180;1277;22377;-76
2024/02/06 04:14:27;;;;;;;;;;;;;;;7.99;77.23;99499.60;137123;1276;22411;-76
2024/02/06 04:17:27;;;;;;;;;;;;;;;7.97;77.35;99500.48;137161;1276;22421;-76
2024/02/06 04:20:28;;;;;;;;;;;;;;;7.97;77.15;99501.75;137166;1277;23301;-75
2024/02/06 04:23:28;;;;;;;;;;;;;;;7.97;77.00;99499.99;137143;1277;22359;-76
2024/02/06 04:26:29;;;;;;;;;;;;;;;7.96;77.22;99502.37;137168;1277;22387;-76
2024/02/06 04:29:29;;;;;;;;;;;;;;;7.93;77.15;99505.67;136999;1276;22403;-77
2024/02/06 04:32:30;;;;;;;;;;;;;;;7.91;77.02;99501.34;137131;1273;22379;-79
2024/02/06 04:35:31;;;;;;;;;;;;;;;7.90;77.05;99505.18;137038;1276;22423;-77
2024/02/06 04:38:32;;;;;;;;;;;;;;;7.89;76.80;99501.55;137157;1276;22459;-76
2024/02/06 04:41:35;;;;;;;;;;;;;;;7.88;76.89;99501.55;137180;1276;22422;-77
2024/02/06 04:44:36;;;;;;;;;;;;;;;7.85;76.89;99498.98;137117;1276;23072;-76
2024/02/06 04:47:36;;;;;;;;;;;;;;;7.82;76.96;99494.38;137165;1276;22418;-77
2024/02/06 04:50:37;;;;;;;;;;;;;;;7.80;76.71;99494.64;137172;1276;22393;-76
2024/02/06 04:53:37;;;;;;;;;;;;;;;7.81;76.81;99498.61;137144;1276;22408;-76
2024/02/06 04:56:38;;;;;;;;;;;;;;;7.79;76.43;99489.23;137130;1276;22424;-75
2024/02/06 04:59:38;;;;;;;;;;;;;;;7.79;76.47;99492.92;137117;1276;22400;-76
2024/02/06 05:02:39;;;;;;;;;;;;;;;7.76;76.65;99493.08;137163;1272;23179;-75
2024/02/06 05:05:40;;;;;;;;;;;;;;;7.73;76.69;99495.23;137126;1276;22395;-76
2024/02/06 05:08:40;;;;;;;;;;;;;;;7.70;76.61;99489.39;137152;1276;22397;-77
2024/02/06 05:11:41;;;;;;;;;;;;;;;7.68;76.62;99486.58;137162;1276;22382;-76
2024/02/06 05:14:42;;;;;;;;;;;;;;;7.67;76.21;99478.92;137106;1276;22382;-76
2024/02/06 05:17:43;;;;;;;;;;;;;;;7.67;76.01;99474.48;137172;1276;22382;-76
2024/02/06 05:20:43;;;;;;;;;;;;;;;7.67;75.73;99466.27;137146;1276;22414;-76
2024/02/06 05:23:44;;;;;;;;;;;;;;;7.67;75.50;99466.25;137126;1276;22384;-77
2024/02/06 05:26:44;;;;;;;;;;;;;;;7.67;75.25;99453.60;137160;1276;22402;-76
2024/02/06 05:29:45;;;;;;;;;;;;;;;7.67;75.52;99455.84;137163;1276;22430;-77
2024/02/06 05:32:45;;;;;;;;;;;;;;;7.66;74.97;99445.45;137201;1273;22415;-75
2024/02/06 05:35:49;;;;;;;;;;;;;;;7.65;75.43;99448.31;137093;1276;22370;-77
2024/02/06 05:38:49;;;;;;;;;;;;;;;7.61;75.37;99439.41;137154;1276;22389;-76
2024/02/06 05:41:50;;;;;;;;;;;;;;;7.61;75.30;99447.02;137149;1275;22447;-76
2024/02/06 05:44:53;;;;;;;;;;;;;;;7.59;75.75;99455.11;137099;1276;22378;-77
2024/02/06 05:48:01;;;;;;;;;;;;;;;7.55;75.71;99452.86;137185;1276;22391;-84
2024/02/06 05:51:04;;;;;;;;;;;;;;;7.54;75.69;99449.72;137134;1276;22275;-79
2024/02/06 05:54:04;;;;;;;;;;;;;;;7.51;75.69;99451.70;137163;1276;22383;-77
2024/02/06 05:57:05;;;;;;;;;;;;;;;7.50;75.76;99451.84;137135;1276;23038;-74
2024/02/06 06:00:06;;;;;;;;;;;;;;;7.49;75.80;99455.33;137167;1273;22415;-77
2024/02/06 06:03:07;;;;;;;;;;;;;;;7.48;75.47;99449.61;137190;1276;22387;-75
2024/02/06 06:06:08;;;;;;;;;;;;;;;7.48;75.51;99446.61;137168;1276;22389;-77
2024/02/06 06:09:09;;;;;;;;;;;;;;;7.48;75.42;99442.55;137123;1276;22405;-78
2024/02/06 06:12:10;;;;;;;;;;;;;;;7.49;75.33;99441.90;137130;1276;22387;-78
2024/02/06 06:15:10;;;;;;;;;;;;;;;7.51;75.09;99443.72;137104;1276;22401;-79
2024/02/06 06:18:11;;;;;;;;;;;;;;;7.53;74.95;99437.65;136945;1276;23136;-79
2024/02/06 06:21:11;;;;;;;;;;;;;;;7.54;74.71;99439.82;137133;1276;22398;-79
2024/02/06 06:24:12;;;;;;;;;;;;;;;7.55;74.19;99437.39;137149;1276;23037;-79
2024/02/06 06:27:17;;;;;;;;;;;;;;;7.56;74.52;99435.21;137125;1276;23119;-79
2024/02/06 06:30:23;;;;;;;;;;;;;;;7.57;74.33;99439.54;137128;1276;22360;-78
2024/02/06 06:33:26;;;;;;;;;;;;;;;7.58;74.31;99439.70;137109;1272;22381;-79
2024/02/06 06:36:27;;;;;;;;;;;;;;;7.58;74.18;99434.05;137131;1276;23118;-79
2024/02/06 06:39:27;;;;;;;;;;;;;;;7.58;73.95;99434.30;137122;1276;23112;-80
2024/02/06 06:42:28;;;;;;;;;;;;;;;7.58;74.06;99438.98;137137;1276;23174;-80
2024/02/06 06:45:32;;;;;;;;;;;;;;;7.58;74.10;99435.30;137185;1276;23202;-79
2024/02/06 06:48:33;;;;;;;;;;;;;;;7.59;73.82;99437.71;137134;1276;22458;-79
2024/02/06 06:51:34;;;;;;;;;;;;;;;7.59;73.94;99438.61;137128;1276;22390;-79
2024/02/06 06:54:34;;;;;;;;;;;;;;;7.59;73.80;99447.39;137103;1276;23112;-80
2024/02/06 06:57:37;;;;;;;;;;;;;;;7.60;73.78;99447.48;137151;1276;22386;-79
2024/02/06 07:00:38;;;;;;;;;;;;;;;7.60;73.73;99451.65;137114;1276;23445;-80
2024/02/06 07:03:39;;;;;;;;;;;;;;;7.61;73.69;99453.01;137141;1272;22397;-80
2024/02/06 07:06:39;;;;;;;;;;;;;;;7.61;73.82;99453.51;137148;1277;22403;-80
2024/02/06 07:09:40;;;;;;;;;;;;;;;7.62;73.89;99458.78;137163;1276;22956;-80
2024/02/06 07:12:41;;;;;;;;;;;;;;;7.62;73.66;99455.81;137166;1277;23033;-80
2024/02/06 07:15:49;;;;;;;;;;;;;;;7.62;73.60;99456.02;137120;1276;23063;-82
2024/02/06 07:18:49;;;;;;;;;;;;;;;7.61;73.86;99460.36;137085;1276;22323;-81
2024/02/06 07:21:56;;;;;;;;;;;;;;;7.61;73.79;99466.46;137148;1276;22366;-74
2024/02/06 07:24:57;;;;;;;;;;;;;;;7.60;73.84;99462.73;137146;1277;23061;-76
2024/02/06 07:27:57;;;;;;;;;;;;;;;7.61;73.98;99464.59;137132;1277;23200;-75
2024/02/06 07:30:58;;;;;;;;;;;;;;;7.62;74.22;99466.95;137153;1277;23133;-76
2024/02/06 07:33:59;;;;;;;;;;;;;;;7.62;74.20;99461.98;137158;1272;22389;-75
2024/02/06 07:36:59;;;;;;;;;;;;;;;7.63;74.16;99463.67;137130;1277;23113;-74
2024/02/06 07:40:00;;;;;;;;;;;;;;;7.63;74.20;99462.95;137116;1276;23314;-74
2024/02/06 07:43:03;;;;;;;;;;;;;;;7.63;74.16;99458.77;137105;1275;22498;-74
2024/02/06 07:46:17;;;;;;;;;;;;;;;;;;;;;
2024/02/06 07:49:30;;;;;;;;;;;;;;;7.63;73.49;99445.29;137048;1277;22439;-74
2024/02/06 07:52:30;;;;;;;;;;;;;;;7.66;73.43;99451.23;137115;1276;22422;-74
2024/02/06 07:55:31;;;;;;;;;;;;;;;7.68;73.66;99455.45;137159;1277;22388;-74
2024/02/06 07:58:32;;;;;;;;;;;;;;;7.68;73.62;99451.27;137132;1270;22395;-74
2024/02/06 08:01:32;;;;;;;;;;;;;;;7.68;73.56;99453.89;137175;1276;23130;-74
2024/02/06 08:04:33;;;;;;;;;;;;;;;7.67;73.68;99453.80;137125;1272;23052;-77
2024/02/06 08:07:34;;;;;;;;;;;;;;;7.67;73.61;99456.80;137091;1276;23199;-78
2024/02/06 08:10:34;;;;;;;;;;;;;;;7.66;73.55;99458.63;136945;1276;23022;-76
2024/02/06 08:13:35;;;;;;;;;;;;;;;7.67;73.68;99460.80;137030;1276;22407;-77
2024/02/06 08:16:36;;;;;;;;;;;;;;;7.69;73.57;99457.14;137148;1276;22354;-78
2024/02/06 08:19:37;;;;;;;;;;;;;;;7.71;73.38;99455.67;136952;1277;23115;-75
2024/02/06 08:22:37;;;;;;;;;;;;;;;7.72;73.46;99460.05;137158;1277;23139;-77
2024/02/06 08:25:38;;;;;;;;;;;;;;;7.74;73.66;99463.94;137149;1272;22356;-76
2024/02/06 08:28:39;;;;;;;;;;;;;;;7.75;73.52;99468.39;137130;1277;22412;-75
2024/02/06 08:31:39;;;;;;;;;;;;;;;7.77;73.53;99468.48;137126;1277;22375;-76
2024/02/06 08:34:40;;;;;;;;;;;;;;;7.80;73.47;99468.96;137183;1275;22360;-75
2024/02/06 08:37:41;;;;;;;;;;;;;;;7.85;73.71;99467.85;137136;1277;22391;-76
2024/02/06 08:40:41;;;;;;;;;;;;;;;7.89;73.73;99467.92;137127;1277;22379;-76
2024/02/06 08:43:52;;;;;;;;;;;;;;;7.91;73.67;99467.39;137109;1277;22412;-77
2024/02/06 08:46:56;;;;;;;;;;;;;;;7.91;73.64;99467.20;137129;1277;22285;-77
2024/02/06 08:49:56;;;;;;;;;;;;;;;7.91;73.35;99469.12;137178;1277;22411;-78
2024/02/06 08:52:57;;;;;;;;;;;;;;;7.93;73.46;99467.20;137184;1277;22391;-79
2024/02/06 08:56:01;;;;;;;;;;;;;;;7.94;73.29;99464.54;137177;1277;22367;-77
2024/02/06 08:59:03;;;;;;;;;;;;;;;7.96;73.44;99466.84;137136;1276;22459;-76
2024/02/06 09:02:04;;;;;;;;;;;;;;;7.97;73.24;99462.68;137140;1276;22376;-76
2024/02/06 09:05:05;;;;;;;;;;;;;;;7.98;72.84;99459.70;137116;1275;22371;-81
2024/02/06 09:08:07;;;;;;;;;;;;;;;8.00;73.11;99467.83;137134;1276;22405;-79
2024/02/06 09:11:07;;;;;;;;;;;;;;;8.01;73.20;99463.84;137144;1276;22372;-77
2024/02/06 09:14:08;;;;;;;;;;;;;;;8.03;73.26;99464.53;137113;1276;22396;-76
2024/02/06 09:17:09;;;;;;;;;;;;;;;8.03;73.24;99465.55;137098;1276;22921;-77
2024/02/06 09:20:12;;;;;;;;;;;;;;;8.05;73.36;99463.34;137113;1277;22412;-78
2024/02/06 09:23:13;;;;;;;;;;;;;;;8.08;73.41;99461.82;137170;1276;22391;-77
2024/02/06 09:26:14;;;;;;;;;;;;;;;8.11;73.39;99465.40;137191;1276;22523;-77
2024/02/06 09:29:15;;;;;;;;;;;;;;;8.13;73.49;99460.13;137155;1276;23125;-77
2024/02/06 09:32:15;;;;;;;;;;;;;;;8.15;73.48;99463.75;136694;1276;367323;-77
2024/02/06 09:35:16;;;;;;;;;;;;;;;8.15;73.49;99466.17;136979;1275;24391;-77
2024/02/06 09:38:16;;;;;;;;;;;;;;;8.17;73.74;99465.61;136962;1276;23132;-78
2024/02/06 09:41:18;;;;;;;;;;;;;;;8.18;73.63;99464.28;137135;1276;22453;-79
2024/02/06 09:44:28;;;;;;;;;;;;;;;8.20;73.72;99456.68;137154;1276;22368;-77
2024/02/06 09:47:29;;;;;;;;;;;;;;;8.22;73.95;99459.29;137140;1276;22267;-77
2024/02/06 09:50:29;;;;;;;;;;;;;;;8.24;73.61;99457.84;136941;1276;22444;-80
2024/02/06 09:53:32;;;;;;;;;;;;;;;8.28;73.47;99455.22;137145;1276;23407;-77
2024/02/06 09:56:32;;;;;;;;;;;;;;;8.33;73.56;99451.73;136953;1276;22365;-80
2024/02/06 09:59:34;;;;;;;;;;;;;;;8.37;73.33;99450.07;137182;1276;22391;-78
2024/02/06 10:02:41;;;;;;;;;;;;;;;8.40;72.77;99445.31;137149;1273;22392;-76
2024/02/06 10:05:42;;;;;;;;;;;;;;;8.45;72.71;99444.97;136972;1276;22317;-78
2024/02/06 10:08:43;;;;;;;;;;;;;;;8.47;72.57;99439.56;137033;1276;22405;-80
2024/02/06 10:11:44;;;;;;;;;;;;;;;8.50;72.65;99446.80;137173;1276;22377;-78
2024/02/06 10:14:44;;;;;;;;;;;;;;;8.51;72.15;99441.61;137165;1276;22388;-77
2024/02/06 10:17:45;;;;;;;;;;;;;;;8.52;72.49;99442.07;137118;1276;22407;-77
2024/02/06 10:20:49;;;;;;;;;;;;;;;8.53;72.32;99436.81;137145;1276;22405;-78
2024/02/06 10:23:50;;;;;;;;;;;;;;;8.55;72.36;99437.37;137181;1276;22384;-77
2024/02/06 10:27:00;;;;;;;;;;;;;;;8.57;72.49;99439.81;136916;1276;22389;-81
2024/02/06 10:30:02;;;;;;;;;;;;;;;8.58;72.16;99424.98;136978;1276;22446;-77
2024/02/06 10:33:15;;;;;;;;;;;;;;;8.61;71.57;99416.75;137117;1272;22394;-78
2024/02/06 10:36:16;;;;;;;;;;;;;;;8.66;71.30;99412.63;136977;1271;22409;-78
2024/02/06 10:39:17;;;;;;;;;;;;;;;8.70;71.22;99411.80;137180;1276;22415;-77
2024/02/06 10:42:28;;;;;;;;;;;;;;;8.74;70.36;99400.83;137223;1272;22415;-82
2024/02/06 10:45:31;;;;;;;;;;;;;;;8.78;70.47;99399.89;136981;1276;22255;-77
2024/02/06 10:48:32;;;;;;;;;;;;;;;8.83;70.11;99397.23;137167;1273;22368;-77
2024/02/06 10:51:35;;;;;;;;;;;;;;;8.88;70.03;99393.10;137131;1276;22399;-77
2024/02/06 10:54:38;;;;;;;;;;;;;;;8.92;69.49;99387.33;137159;1276;23204;-78
2024/02/06 10:57:41;;;;;;;;;;;;;;;8.96;69.43;99389.08;137156;1276;23068;-78
2024/02/06 11:00:42;;;;;;;;;;;;;;;9.01;69.19;99387.33;136975;1276;22411;-78
2024/02/06 11:04:05;;;;;;;;;;;;;;;9.04;68.78;99379.98;136717;1280;22417;-78
2024/02/06 11:07:08;;;;;;;;;;;;;;;9.06;68.53;99378.70;136729;1280;22418;-77
2024/02/06 11:10:10;;;;;;;;;;;;;;;9.08;68.23;99368.77;136739;1280;22484;-77
2024/02/06 11:13:35;;;;;;;;;;;;;;;9.12;67.87;99371.98;136720;1280;23557;-77
2024/02/06 11:16:40;;;;;;;;;;;;;;;9.17;67.34;99367.55;136741;1280;23704;-77
2024/02/06 11:19:46;;;;;;;;;;;;;;;9.22;67.45;99370.30;136731;1276;22439;-77
2024/02/06 11:22:48;;;;;;;;;;;;;;;9.28;68.01;99364.41;136738;1280;22445;-77
2024/02/06 11:25:49;;;;;;;;;;;;;;;9.32;67.71;99362.14;136638;1280;22618;-79
2024/02/06 11:28:51;;;;;;;;;;;;;;;9.30;67.74;99361.77;136733;1280;22487;-77
2024/02/06 11:31:52;;;;;;;;;;;;;;;9.27;67.70;99360.20;136747;1280;22429;-77
2024/02/06 11:34:52;;;;;;;;;;;;;;;9.22;67.35;99359.94;136708;1280;22429;-78
2024/02/06 11:37:56;;;;;;;;;;;;;;;9.19;67.52;99364.86;136678;1280;22388;-77
2024/02/06 11:41:06;;;;;;;;;;;;;;;9.19;67.47;99367.88;136851;1277;22502;-77
2024/02/06 11:44:07;;;;;;;;;;;;;;;9.21;67.79;99357.16;136996;1277;23154;-77
2024/02/06 11:48:04;;;;;;;;;;;;;;;9.23;67.69;99349.71;137077;1276;22380;-77
2024/02/06 11:50:47;;;;;;;;;;;;;;;9.25;67.34;99349.04;137071;1277;22435;-75
2024/02/06 11:53:48;;;;;;;;;;;;;;;9.26;67.30;99345.02;137124;1276;22374;-77
2024/02/06 11:56:49;;;;;;;;;;;;;;;9.26;67.46;99339.73;137142;1276;22390;-77
2024/02/06 11:59:55;;;;;;;;;;;;;;;9.25;67.64;99336.16;137190;1276;23600;-80
2024/02/06 12:08:03;;;;;;;;;;;;;;;9.16;67.72;99339.98;136994;1276;22445;-80
2024/02/06 12:11:19;;;;;;;;;;;;;;;;;;;;;
2024/02/06 12:15:09;;;;;;;;;;;;;;;9.07;67.93;99333.81;137071;1276;22271;-83
2024/02/06 12:18:27;;;;;;;;;;;;;;;9.01;68.14;99336.45;137050;1276;23080;-83
2024/02/06 12:21:29;;;;;;;;;;;;;;;8.94;68.22;99338.76;137141;1276;23114;-83
2024/02/06 12:24:30;;;;;;;;;;;;;;;8.89;68.44;99330.33;136919;1276;22397;-83
2024/02/06 12:28:03;;;;;;;;;;;;;;;8.86;68.69;99327.16;136776;1279;22531;-86
2024/02/06 12:31:04;;;;;;;;;;;;;;;8.85;68.70;99324.42;136841;1279;22461;-80
2024/02/06 12:34:06;;;;;;;;;;;;;;;8.86;68.73;99325.65;136862;1279;23178;-76
2024/02/06 12:37:12;;;;;;;;;;;;;;;8.84;68.61;99321.00;136858;1279;22478;-81
2024/02/06 12:40:16;;;;;;;;;;;;;;;8.85;68.83;99312.09;136831;1279;22443;-82
2024/02/06 12:43:18;;;;;;;;;;;;;;;8.86;69.02;99310.36;136849;1279;23324;-81
2024/02/06 12:46:22;;;;;;;;;;;;;;;8.87;68.85;99304.84;136845;1279;22302;-82
2024/02/06 12:49:24;;;;;;;;;;;;;;;8.86;68.90;99306.99;136825;1279;22452;-81
2024/02/06 12:53:00;;;;;;;;;;;;;;;;;;;;;
2024/02/06 12:56:23;;;;;;;;;;;;;;;8.84;69.13;99297.61;136842;1279;22425;-82
2024/02/06 12:59:27;;;;;;;;;;;;;;;8.83;69.11;99298.74;137076;1276;23134;-83
2024/02/06 13:02:36;;;;;;;;;;;;;;;8.82;69.12;99290.59;137135;1276;22422;-82
2024/02/06 13:05:37;;;;;;;;;;;;;;;8.80;69.07;99286.52;137115;1276;22314;-82
2024/02/06 13:08:45;;;;;;;;;;;;;;;8.82;68.91;99287.13;137151;1276;23040;-82
2024/02/06 13:11:49;;;;;;;;;;;;;;;8.81;69.10;99282.79;137131;1276;22374;-82
2024/02/06 13:14:52;;;;;;;;;;;;;;;8.80;68.83;99280.94;137125;1276;22480;-82
2024/02/06 13:17:59;;;;;;;;;;;;;;;8.78;68.87;99281.33;137148;1276;22356;-82
2024/02/06 13:21:08;;;;;;;;;;;;;;;8.76;69.24;99281.77;137141;1276;22535;-82
2024/02/06 13:24:25;;;;;;;;;;;;;;;8.73;69.01;99279.30;137112;1276;22351;-82
2024/02/06 13:27:28;;;;;;;;;;;;;;;8.71;69.06;99275.81;137154;1276;22362;-82
2024/02/06 13:30:39;;;;;;;;;;;;;;;8.68;69.13;99275.31;137172;1276;22402;-82
2024/02/06 13:34:00;;;;;;;;;;;;;;;8.64;69.23;99270.39;137113;1276;22550;-82
2024/02/06 13:37:06;;;;;;;;;;;;;;;8.63;69.08;99265.23;137161;1276;23517;-82
2024/02/06 13:40:17;;;;;;;;;;;;;;;8.61;69.34;99267.48;137099;1276;22945;-82
2024/02/06 13:43:42;;;;;;;;;;;;;;;;;;;;;
2024/02/06 13:47:26;;;;;;;;;;;;;;;8.55;69.65;99280.27;136571;1281;22429;-82
2024/02/06 13:50:26;;;;;;;;;;;;;;;8.52;69.69;99279.81;136591;1274;22608;-82
2024/02/06 13:54:13;;;;;;;;;;;;;;;8.51;69.81;99280.20;136594;1281;22508;-83
2024/02/06 13:57:32;;;;;;;;;;;;;;;8.48;69.89;99278.39;136503;1281;22451;-84
2024/02/06 14:00:35;;;;;;;;;;;;;;;8.47;69.70;99272.54;136606;1281;23136;-83
2024/02/06 14:03:36;;;;;;;;;;;;;;;8.44;69.97;99273.15;136541;1281;22513;-83
2024/02/06 14:06:38;;;;;;;;;;;;;;;8.43;70.03;99268.77;136600;1281;22452;-83
2024/02/06 14:09:38;;;;;;;;;;;;;;;8.40;70.06;99270.27;136574;1281;23660;-84
2024/02/06 14:12:39;;;;;;;;;;;;;;;8.38;70.08;99263.98;137074;1275;22492;-83
2024/02/06 14:16:15;;;;;;;;;;;;;;;;;;;;;
2024/02/06 14:20:25;;;;;;;;;;;;;;;8.37;70.14;99258.10;137132;1276;22410;-83
2024/02/06 14:23:23;;;;;;;;;;;;;;;8.37;70.22;99260.05;137104;1276;22438;-83
2024/02/06 14:26:39;;;;;;;;;;;;;;;8.35;70.32;99252.48;137119;1276;22346;-84
2024/02/06 14:29:40;;;;;;;;;;;;;;;8.34;70.23;99251.77;137126;1276;23701;-83
2024/02/06 14:32:41;;;;;;;;;;;;;;;8.31;70.32;99250.73;137120;1276;23125;-84
2024/02/06 14:35:43;;;;;;;;;;;;;;;8.28;70.33;99247.31;137100;1276;23291;-84
2024/02/06 14:38:43;;;;;;;;;;;;;;;8.26;70.34;99243.35;137081;1276;23111;-84
2024/02/06 14:41:44;;;;;;;;;;;;;;;8.24;70.26;99233.11;137111;1274;22468;-84
2024/02/06 14:44:45;;;;;;;;;;;;;;;8.22;70.42;99239.16;137128;1276;22404;-84
2024/02/06 14:47:48;;;;;;;;;;;;;;;8.21;70.38;99241.39;137109;1276;22391;-83
2024/02/06 14:50:49;;;;;;;;;;;;;;;8.21;70.42;99239.35;137136;1276;23562;-83
2024/02/06 14:53:52;;;;;;;;;;;;;;;8.20;70.65;99238.92;137079;1276;23149;-84
2024/02/06 14:56:55;;;;;;;;;;;;;;;8.18;70.57;99238.92;137089;1276;22289;-84
2024/02/06 15:00:23;;;;;;;;;;;;;;;8.17;70.58;99227.84;137115;1276;22391;-84
2024/02/06 15:03:35;;;;;;;;;;;;;;;8.18;70.46;99222.05;137111;1276;23091;-84
2024/02/06 15:06:39;;;;;;;;;;;;;;;8.21;70.49;99219.42;137098;1276;22298;-84
2024/02/06 15:09:55;;;;;;;;;;;;;;;8.22;70.40;99209.97;137080;1276;22458;-86
2024/02/06 15:12:56;;;;;;;;;;;;;;;8.22;70.36;99201.45;137081;1276;22370;-84
2024/02/06 15:15:57;;;;;;;;;;;;;;;8.23;70.60;99199.51;137078;1276;23168;-84
2024/02/06 15:18:58;;;;;;;;;;;;;;;8.22;70.49;99200.83;137077;1276;23307;-84
2024/02/06 15:22:01;;;;;;;;;;;;;;;8.21;70.35;99196.64;137059;1276;22432;-84
2024/02/06 15:25:01;;;;;;;;;;;;;;;8.22;70.56;99195.35;137100;1276;23041;-84
2024/02/06 15:28:03;;;;;;;;;;;;;;;8.23;70.45;99188.38;137086;1269;22396;-84
2024/02/06 15:31:16;;;;;;;;;;;;;;;8.23;70.57;99184.86;137093;1276;23157;-84
2024/02/06 15:34:41;;;;;;;;;;;;;;;8.21;70.72;99182.44;137078;1276;22443;-84
2024/02/06 15:38:02;;;;;;;;;;;;;;;8.18;70.76;99179.94;137056;1276;22463;-84
2024/02/06 15:41:09;;;;;;;;;;;;;;;8.18;70.69;99179.89;137061;1276;22412;-85
2024/02/06 15:44:13;;;;;;;;;;;;;;;8.18;70.73;99176.23;137114;1273;22356;-84
2024/02/06 15:47:14;;;;;;;;;;;;;;;8.17;70.79;99180.09;137107;1276;22427;-83
2024/02/06 15:50:14;;;;;;;;;;;;;;;8.18;70.74;99174.25;137067;1269;22358;-84
2024/02/06 15:53:15;;;;;;;;;;;;;;;8.21;70.72;99175.77;137060;1271;22404;-82
2024/02/06 15:56:16;;;;;;;;;;;;;;;8.22;70.76;99170.27;137083;1276;22395;-82
2024/02/06 15:59:40;;;;;;;;;;;;;;;8.23;70.67;99168.09;137098;1276;22429;-82
2024/02/06 16:02:45;;;;;;;;;;;;;;;8.23;70.67;99164.14;137036;1276;22327;-83
2024/02/06 16:05:47;;;;;;;;;;;;;;;8.22;70.76;99160.77;137080;1276;23177;-82
2024/02/06 16:09:32;;;;;;;;;;;;;;;8.21;70.90;99164.41;137092;1276;23412;-83